Puerto de Leitariegos

latitud = 42° 59' 50''N | longitud = 006° 25' 07''W
1530 metros sobre el nivel del mar | datos mensuales

Fecha, hora, temperatura, viento dirección y velocidad, humedad y presión.

  • 22-11-2017 09:00:00 | 6.60°C | Este |12.00 km/h | 45.00% | 844.10 hPa
  • 22-11-2017 08:00:00 | 0.00°C | 0 |0.00 km/h | 0.00% | 0.00 hPa
  • 22-11-2017 07:00:00 | 7.30°C | Sudeste |9.00 km/h | 42.00% | 844.70 hPa
  • 22-11-2017 06:00:00 | 6.80°C | Sudeste |28.00 km/h | 46.00% | 844.60 hPa
  • 22-11-2017 05:00:00 | 6.50°C | Sudeste |28.00 km/h | 47.00% | 845.00 hPa
  • 22-11-2017 04:00:00 | 0.00°C | 0 |0.00 km/h | 0.00% | 0.00 hPa
  • 22-11-2017 03:00:00 | 6.90°C | Sudeste |26.00 km/h | 43.00% | 845.90 hPa
  • 22-11-2017 02:00:00 | 2.60°C | Sudeste |12.00 km/h | 56.00% | 846.80 hPa
  • 22-11-2017 01:00:00 | 2.90°C | Sudeste |8.00 km/h | 53.00% | 847.50 hPa
  • 22-11-2017 00:00:00 | 2.50°C | Sudeste |7.00 km/h | 55.00% | 847.80 hPa
  • 21-11-2017 23:00:00 | 2.90°C | Sudeste |6.00 km/h | 54.00% | 848.10 hPa
  • 21-11-2017 22:00:00 | 3.60°C | Sur |8.00 km/h | 49.00% | 848.60 hPa
  • 21-11-2017 21:00:00 | 4.30°C | Sur |8.00 km/h | 45.00% | 848.90 hPa
  • 21-11-2017 20:00:00 | 5.60°C | Sur |12.00 km/h | 38.00% | 849.20 hPa
  • 21-11-2017 19:00:00 | 5.90°C | Sudeste |9.00 km/h | 33.00% | 849.20 hPa
  • 21-11-2017 18:00:00 | 0.00°C | 0 |0.00 km/h | 0.00% | 0.00 hPa
  • 21-11-2017 17:00:00 | 8.30°C | Sur |9.00 km/h | 26.00% | 849.70 hPa
  • 21-11-2017 16:00:00 | 0.00°C | 0 |0.00 km/h | 0.00% | 0.00 hPa
  • 21-11-2017 15:00:00 | 11.80°C | Sudeste |9.00 km/h | 25.00% | 850.10 hPa
  • 21-11-2017 14:00:00 | 11.70°C | Sudeste |11.00 km/h | 24.00% | 850.70 hPa
  • 21-11-2017 13:00:00 | 0.00°C | 0 |0.00 km/h | 0.00% | 0.00 hPa
  • 21-11-2017 12:00:00 | 10.50°C | Sudeste |10.00 km/h | 30.00% | 851.80 hPa
  • 21-11-2017 11:00:00 | 9.50°C | Sudeste |12.00 km/h | 33.00% | 851.80 hPa
  • 21-11-2017 10:00:00 | 7.20°C | Sudeste |9.00 km/h | 33.00% | 851.90 hPa